Time;durP1;ratioP1;P1;durP2;ratioP2;P2;SDS_P1;SDS_P2;PMS_P1;PMS_P2;Temp;Humidity;BMP_temperature;BMP_pressure;BME280_temperature;BME280_humidity;BME280_pressure;Samples;Min_cycle;Max_cycle;Signal;HPM_P1;HPM_P2
2022/07/28 00:01:52;;;;;;;2.55;0.95;;;;;;;17.84;57.61;98695.38;5061919;28;20047;-70
2022/07/28 00:04:17;;;;;;;8.52;1.20;;;;;;;17.89;57.30;98689.13;5060528;28;20461;-71
2022/07/28 00:06:42;;;;;;;5.45;1.00;;;;;;;17.84;57.41;98695.38;5063532;28;20132;-70
2022/07/28 00:09:08;;;;;;;2.88;0.77;;;;;;;17.86;57.19;98695.94;5043912;28;20039;-70
2022/07/28 00:11:33;;;;;;;7.20;1.08;;;;;;;17.81;57.48;98679.44;5064032;28;20032;-69
2022/07/28 00:13:58;;;;;;;2.80;1.00;;;;;;;17.77;57.79;98688.41;5061181;28;20028;-70
2022/07/28 00:16:24;;;;;;;2.53;1.05;;;;;;;17.71;57.96;98680.13;5066762;28;20032;-70
2022/07/28 00:18:49;;;;;;;4.40;0.90;;;;;;;17.61;58.27;98677.25;5060176;28;20027;-69
2022/07/28 00:21:14;;;;;;;2.70;1.13;;;;;;;17.41;59.07;98657.78;5065385;28;20392;-70
2022/07/28 00:23:40;;;;;;;5.80;1.17;;;;;;;17.47;58.88;98670.44;5043634;28;20500;-70
2022/07/28 00:26:07;;;;;;;6.90;0.80;;;;;;;17.44;58.70;98662.75;5067377;28;20029;-70
2022/07/28 00:28:32;;;;;;;3.42;0.80;;;;;;;17.36;59.30;98668.66;5063874;28;20028;-70
2022/07/28 00:30:58;;;;;;;3.28;0.93;;;;;;;17.22;59.27;98658.06;5069900;28;20378;-70
2022/07/28 00:33:23;;;;;;;7.78;1.15;;;;;;;17.30;59.53;98662.28;5063863;28;20028;-70
2022/07/28 00:35:48;;;;;;;2.38;0.95;;;;;;;17.22;59.27;98669.00;5062074;28;20020;-70
2022/07/28 00:38:14;;;;;;;2.85;0.85;;;;;;;17.24;59.60;98666.84;5067573;28;20032;-70
2022/07/28 00:43:23;;;;;;;3.40;1.00;;;;;;;17.13;60.38;98665.03;5064696;28;20082;-69
2022/07/28 00:45:48;;;;;;;3.22;1.17;;;;;;;17.00;60.42;98666.22;5064372;28;20400;-70
2022/07/28 00:48:14;;;;;;;3.80;1.88;;;;;;;16.95;60.71;98657.06;5058532;28;20017;-70
2022/07/28 00:50:39;;;;;;;2.97;1.00;;;;;;;16.77;61.20;98645.31;5060330;28;20021;-70
2022/07/28 00:53:06;;;;;;;6.70;1.20;;;;;;;16.72;61.57;98647.94;5060971;28;20024;-70
2022/07/28 00:55:31;;;;;;;1.65;0.70;;;;;;;16.75;61.33;98643.88;5062893;28;20025;-70
2022/07/28 00:57:56;;;;;;;5.60;0.90;;;;;;;16.57;62.35;98648.50;5048354;28;20091;-70
2022/07/28 01:00:22;;;;;;;3.78;0.90;;;;;;;16.51;63.13;98645.94;5055765;28;20038;-70
2022/07/28 01:02:48;;;;;;;4.53;1.17;;;;;;;16.46;63.24;98656.75;5057189;28;20034;-70
2022/07/28 01:05:14;;;;;;;4.57;1.08;;;;;;;16.40;63.59;98661.28;5062880;28;20025;-70
2022/07/28 01:07:52;;;;;;;2.15;1.00;;;;;;;16.33;63.92;98658.72;5052302;28;20492;-70
2022/07/28 01:10:39;;;;;;;3.75;1.10;;;;;;;16.33;64.52;98655.16;5068484;28;20039;-71
2022/07/28 01:13:12;;;;;;;2.47;0.90;;;;;;;16.37;64.65;98650.84;5065060;28;20021;-70
2022/07/28 01:15:45;;;;;;;2.17;0.68;;;;;;;16.29;64.48;98649.34;5066272;28;20138;-69
2022/07/28 01:18:19;;;;;;;3.85;1.00;;;;;;;16.21;65.14;98641.53;5062253;28;20028;-70
2022/07/28 01:20:48;;;;;;;1.77;0.90;;;;;;;16.13;64.78;98640.03;5058619;28;20057;-70
2022/07/28 01:23:32;;;;;;;1.40;0.90;;;;;;;16.09;64.99;98648.97;5065106;28;20103;-70
2022/07/28 01:26:16;;;;;;;1.92;0.90;;;;;;;16.03;65.50;98650.75;5063233;28;20143;-70
2022/07/28 01:29:09;;;;;;;2.85;0.73;;;;;;;15.99;65.54;98642.22;5064273;28;20037;-70
2022/07/28 01:31:42;;;;;;;4.38;0.90;;;;;;;15.96;65.80;98639.16;5067560;28;20039;-71
2022/07/28 01:34:13;;;;;;;4.93;0.75;;;;;;;15.95;65.85;98634.75;5064496;28;20025;-70
2022/07/28 01:36:51;;;;;;;3.90;1.10;;;;;;;16.04;66.06;98641.50;5062847;28;20095;-70
2022/07/28 01:39:18;;;;;;;3.05;1.02;;;;;;;15.99;66.44;98633.22;5068517;28;20115;-70
2022/07/28 01:41:45;;;;;;;2.50;1.10;;;;;;;16.00;66.51;98643.06;5068339;28;20427;-69
2022/07/28 01:44:17;;;;;;;2.78;1.00;;;;;;;15.98;66.19;98637.84;5060598;28;20053;-70
2022/07/28 01:46:45;;;;;;;1.42;0.90;;;;;;;15.91;66.27;98639.88;5057863;28;20035;-70
2022/07/28 01:49:12;;;;;;;6.57;1.20;;;;;;;15.78;67.71;98631.97;5071691;28;20430;-70
2022/07/28 01:51:38;;;;;;;3.25;1.02;;;;;;;15.77;67.90;98638.47;5066858;28;20371;-70
2022/07/28 01:54:05;;;;;;;2.38;1.10;;;;;;;15.64;69.11;98614.19;5068390;28;20059;-70
2022/07/28 01:56:32;;;;;;;4.25;1.00;;;;;;;15.67;70.18;98630.09;5062151;28;20031;-70
2022/07/28 01:59:04;;;;;;;6.50;0.98;;;;;;;15.64;70.49;98630.53;5067253;28;20034;-69
2022/07/28 02:01:35;;;;;;;2.42;0.80;;;;;;;15.60;70.67;98629.38;5064174;28;20028;-71
2022/07/28 02:04:03;;;;;;;5.22;1.10;;;;;;;15.66;70.88;98618.31;5063379;28;20081;-69
2022/07/28 02:06:29;;;;;;;1.80;0.90;;;;;;;15.69;70.24;98627.94;5062991;28;20410;-71
2022/07/28 02:08:56;;;;;;;4.60;1.17;;;;;;;15.76;69.38;98631.38;5066011;28;20033;-70
2022/07/28 02:11:38;;;;;;;4.15;0.90;;;;;;;15.76;69.09;98628.66;5063177;28;20032;-70
2022/07/28 02:14:07;;;;;;;3.53;1.00;;;;;;;15.73;69.08;98610.06;5077548;28;20181;-69
2022/07/28 02:16:32;;;;;;;3.55;1.00;;;;;;;15.69;69.63;98622.50;5065124;28;20032;-70
2022/07/28 02:18:59;;;;;;;2.58;0.93;;;;;;;15.65;72.51;98632.22;5068514;28;20142;-69
2022/07/28 02:21:27;;;;;;;8.45;1.15;;;;;;;15.41;74.17;98610.44;5066235;28;20033;-69
2022/07/28 02:23:53;;;;;;;1.50;0.63;;;;;;;15.43;74.93;98624.69;5064087;28;20044;-70
2022/07/28 02:26:40;;;;;;;3.25;1.00;;;;;;;15.31;73.05;98621.94;5067859;28;20016;-70
2022/07/28 02:29:09;;;;;;;2.85;0.77;;;;;;;15.24;72.85;98620.41;5060602;28;20025;-69
2022/07/28 02:31:49;;;;;;;2.90;0.88;;;;;;;15.26;73.23;98618.28;5066657;28;20032;-69
2022/07/28 02:34:15;;;;;;;3.83;1.10;;;;;;;15.29;73.55;98615.91;5070703;28;20121;-70
2022/07/28 02:36:46;;;;;;;1.77;0.80;;;;;;;15.26;74.41;98624.56;5068107;28;20028;-70
2022/07/28 02:39:17;;;;;;;2.45;1.10;;;;;;;15.20;75.81;98617.34;5062582;28;20166;-71
2022/07/28 02:41:43;;;;;;;1.40;1.23;;;;;;;15.17;76.58;98617.81;5065368;28;20027;-70
2022/07/28 02:44:18;;;;;;;2.53;1.00;;;;;;;15.16;77.02;98609.88;5064983;28;20040;-70
2022/07/28 02:46:47;;;;;;;2.72;1.10;;;;;;;15.06;76.90;98616.75;5064691;28;20489;-69
2022/07/28 02:49:18;;;;;;;3.03;0.95;;;;;;;15.05;76.25;98620.53;5068230;28;20021;-70
2022/07/28 02:51:45;;;;;;;5.05;1.00;;;;;;;15.04;75.13;98620.78;5064884;28;20033;-70
2022/07/28 02:54:12;;;;;;;5.75;1.00;;;;;;;15.06;73.47;98605.00;5063952;28;20029;-70
2022/07/28 02:56:40;;;;;;;3.05;0.80;;;;;;;14.98;74.01;98599.91;5065935;28;20062;-69
2022/07/28 02:59:06;;;;;;;7.32;1.00;;;;;;;14.96;74.23;98616.53;5063051;28;20055;-69
2022/07/28 03:01:32;;;;;;;2.92;0.90;;;;;;;14.83;75.11;98614.03;5116861;22;20068;-69
2022/07/28 03:03:58;;;;;;;2.67;0.75;;;;;;;14.69;75.64;98597.88;5072932;28;20158;-69
2022/07/28 03:06:24;;;;;;;7.20;1.00;;;;;;;14.72;76.21;98612.91;5078888;28;20376;-69
2022/07/28 03:08:50;;;;;;;3.58;0.93;;;;;;;14.64;77.30;98599.66;5074500;28;20027;-69
2022/07/28 03:11:15;;;;;;;3.80;1.00;;;;;;;14.66;77.99;98619.31;5071623;28;20032;-69
2022/07/28 03:13:41;;;;;;;4.88;0.95;;;;;;;14.68;78.02;98611.75;5050745;28;20048;-69
2022/07/28 03:16:07;;;;;;;4.25;0.75;;;;;;;14.48;78.51;98584.81;5071277;28;20104;-68
2022/07/28 03:18:33;;;;;;;3.25;1.27;;;;;;;14.47;79.17;98583.16;5065282;28;20073;-69
2022/07/28 03:20:59;;;;;;;2.13;0.80;;;;;;;14.60;80.17;98609.38;5070542;28;20396;-69
2022/07/28 03:23:31;;;;;;;1.98;0.90;;;;;;;14.58;80.48;98609.59;5053088;28;20044;-68
2022/07/28 03:26:19;;;;;;;8.85;0.80;;;;;;;14.55;81.47;98612.78;5054303;28;20024;-69
2022/07/28 03:28:47;;;;;;;1.30;0.80;;;;;;;14.55;81.79;98604.63;5066204;28;20029;-69
2022/07/28 03:31:14;;;;;;;5.30;1.30;;;;;;;14.47;81.85;98592.16;5065399;28;20094;-69
2022/07/28 03:33:40;;;;;;;3.10;1.10;;;;;;;14.48;82.76;98606.59;5071087;28;20036;-69
2022/07/28 03:36:10;;;;;;;3.97;1.02;;;;;;;14.44;84.01;98613.56;5070083;28;20114;-69
2022/07/28 03:38:39;;;;;;;4.60;1.00;;;;;;;14.24;83.64;98587.47;5071142;28;20027;-69
2022/07/28 03:41:06;;;;;;;;;;;;;;;14.38;84.27;98614.47;5071282;28;21207;-69
2022/07/28 03:43:32;;;;;;;2.55;0.85;;;;;;;14.38;84.53;98618.06;5070653;28;19912;-68
2022/07/28 03:45:58;;;;;;;3.65;0.98;;;;;;;14.38;84.56;98607.16;5069130;28;20396;-68
2022/07/28 03:48:30;;;;;;;4.13;1.00;;;;;;;14.21;85.01;98585.22;5066429;28;20026;-68
2022/07/28 03:50:57;;;;;;;3.42;1.00;;;;;;;14.38;85.39;98609.03;5070817;28;20043;-68
2022/07/28 03:53:28;;;;;;;5.05;1.15;;;;;;;14.31;85.88;98605.59;5068315;28;20039;-69
2022/07/28 03:55:55;;;;;;;2.35;1.05;;;;;;;14.34;86.15;98610.59;5066553;28;20036;-67
2022/07/28 03:58:23;;;;;;;1.98;1.02;;;;;;;14.37;85.47;98604.66;5064020;28;20047;-69
2022/07/28 04:00:48;;;;;;;3.00;1.20;;;;;;;14.35;87.75;98604.06;5065966;28;20037;-68
2022/07/28 04:03:15;;;;;;;3.08;0.95;;;;;;;14.28;87.74;98606.06;5065334;28;20034;-68
2022/07/28 04:05:40;;;;;;;1.88;1.02;;;;;;;14.44;87.87;98611.69;5069185;28;20107;-67
2022/07/28 04:08:05;;;;;;;3.67;1.20;;;;;;;14.49;87.63;98619.16;5062934;28;20017;-68
2022/07/28 04:10:31;;;;;;;2.22;1.10;;;;;;;14.56;86.05;98614.44;5062956;28;20074;-67
2022/07/28 04:12:57;;;;;;;3.70;0.95;;;;;;;14.68;85.59;98623.47;5063610;28;20021;-69
2022/07/28 04:15:24;;;;;;;7.53;1.10;;;;;;;14.75;84.78;98622.50;5066302;28;20032;-69
2022/07/28 04:17:53;;;;;;;3.10;1.27;;;;;;;14.76;84.80;98624.19;5062258;28;20031;-68
2022/07/28 04:20:21;;;;;;;6.00;1.00;;;;;;;14.83;84.57;98624.91;5068736;28;20024;-69
2022/07/28 04:22:47;;;;;;;5.00;1.45;;;;;;;14.93;82.75;98625.13;5052325;28;20025;-69
2022/07/28 04:25:14;;;;;;;3.55;1.23;;;;;;;14.97;82.61;98615.44;5067517;28;20032;-71
2022/07/28 04:27:41;;;;;;;4.50;1.08;;;;;;;14.94;80.59;98609.66;5066404;28;20148;-68
2022/07/28 04:30:18;;;;;;;3.65;1.27;;;;;;;15.19;80.83;98628.47;5069026;28;20173;-68
2022/07/28 04:32:44;;;;;;;2.55;1.25;;;;;;;15.40;83.09;98624.31;5065851;28;20077;-69
2022/07/28 04:35:11;;;;;;;2.80;1.20;;;;;;;15.43;79.86;98621.94;5067918;28;20028;-67
2022/07/28 04:37:37;;;;;;;3.08;1.10;;;;;;;15.51;79.64;98632.47;5066865;28;20386;-68
2022/07/28 04:40:05;;;;;;;4.82;1.50;;;;;;;15.52;80.27;98625.13;5065537;28;20390;-69
2022/07/28 04:42:30;;;;;;;5.35;1.67;;;;;;;15.57;79.66;98628.78;5068292;28;20500;-68
2022/07/28 04:44:55;;;;;;;3.90;1.50;;;;;;;15.62;80.49;98624.53;5066157;28;20063;-73
2022/07/28 04:47:22;;;;;;;1.95;1.13;;;;;;;15.66;79.84;98618.31;5068985;28;20135;-66
2022/07/28 04:49:47;;;;;;;2.25;1.00;;;;;;;15.68;79.44;98620.81;5068973;28;20024;-66
2022/07/28 04:52:14;;;;;;;1.55;1.10;;;;;;;15.71;78.16;98623.09;5070566;28;20134;-66
2022/07/28 04:54:39;;;;;;;3.35;1.42;;;;;;;15.75;76.70;98606.00;5071566;28;20434;-66
2022/07/28 04:57:05;;;;;;;4.00;1.02;;;;;;;15.79;77.26;98598.16;5054609;28;20036;-65
2022/07/28 04:59:30;;;;;;;5.07;1.48;;;;;;;16.05;75.22;98617.78;5068596;28;20385;-65
2022/07/28 05:01:58;;;;;;;5.72;1.17;;;;;;;16.07;75.29;98612.91;5068837;28;20024;-65
2022/07/28 05:04:24;;;;;;;5.07;1.35;;;;;;;16.03;75.65;98604.34;5066962;28;20016;-67
2022/07/28 05:06:49;;;;;;;2.53;1.10;;;;;;;16.29;72.82;98622.03;5066600;28;20044;-66
2022/07/28 05:09:15;;;;;;;3.95;1.15;;;;;;;16.26;72.42;98621.72;5048718;28;20047;-72
2022/07/28 05:11:40;;;;;;;3.15;1.23;;;;;;;16.22;72.35;98626.84;5072357;28;20386;-70
2022/07/28 05:14:06;;;;;;;8.00;1.35;;;;;;;16.23;72.70;98623.03;5069471;28;20024;-70
2022/07/28 05:16:31;;;;;;;6.07;1.15;;;;;;;16.29;74.10;98632.97;5049217;28;20058;-70
2022/07/28 05:18:56;;;;;;;2.47;1.15;;;;;;;16.29;74.39;98632.13;5066763;28;20028;-70
2022/07/28 05:21:22;;;;;;;3.20;1.38;;;;;;;16.25;74.52;98623.63;5048717;28;20537;-71
2022/07/28 05:23:47;;;;;;;3.70;1.55;;;;;;;16.38;73.12;98628.78;5070663;28;20036;-71
2022/07/28 05:26:13;;;;;;;2.72;1.20;;;;;;;16.41;73.12;98611.91;5068754;28;20513;-70
2022/07/28 05:28:39;;;;;;;2.53;1.50;;;;;;;16.49;71.06;98615.31;5068170;28;20097;-71
2022/07/28 05:31:04;;;;;;;1.67;1.00;;;;;;;16.69;71.29;98623.84;5067397;28;20066;-69
2022/07/28 05:33:30;;;;;;;3.53;1.40;;;;;;;16.80;70.34;98625.69;5053768;28;20032;-71
2022/07/28 05:35:58;;;;;;;2.53;1.38;;;;;;;17.01;68.92;98628.78;5069497;28;20107;-70
2022/07/28 05:38:27;;;;;;;2.53;1.60;;;;;;;17.17;68.19;98597.84;5046489;28;20489;-69
2022/07/28 05:40:53;;;;;;;2.63;1.27;;;;;;;17.82;66.77;98622.81;5063834;28;20046;-67
2022/07/28 05:43:19;;;;;;;2.53;1.30;;;;;;;18.03;65.95;98627.44;5067798;28;20033;-70
2022/07/28 05:45:45;;;;;;;3.80;1.50;;;;;;;18.38;64.56;98620.69;5066421;28;20029;-69
2022/07/28 05:48:11;;;;;;;3.25;1.00;;;;;;;18.45;63.29;98624.06;5069534;28;20081;-74
2022/07/28 05:50:36;;;;;;;3.17;1.38;;;;;;;18.13;65.39;98616.63;5069402;28;20143;-70
2022/07/28 05:53:02;;;;;;;5.97;1.48;;;;;;;18.08;66.42;98627.50;5072850;28;20077;-68
2022/07/28 05:55:28;;;;;;;4.68;1.40;;;;;;;17.94;67.97;98635.25;5073710;28;20052;-69
2022/07/28 05:57:53;;;;;;;3.78;1.40;;;;;;;17.89;68.32;98628.91;5054393;28;20024;-69
2022/07/28 06:00:21;;;;;;;2.67;1.30;;;;;;;18.20;66.52;98635.56;5054950;28;20030;-69
2022/07/28 06:02:50;;;;;;;5.82;1.30;;;;;;;18.45;65.86;98615.84;5075506;28;20029;-68
2022/07/28 06:05:21;;;;;;;3.15;1.35;;;;;;;18.96;64.09;98630.00;5089132;28;20044;-69
2022/07/28 06:07:47;;;;;;;3.60;1.40;;;;;;;19.27;63.81;98614.59;5082857;28;20058;-69
2022/07/28 06:10:16;;;;;;;4.15;1.35;;;;;;;19.71;61.21;98610.75;5088783;28;20032;-69
2022/07/28 06:12:43;;;;;;;3.47;1.40;;;;;;;19.92;60.17;98628.13;5068493;28;20115;-68
2022/07/28 06:15:13;;;;;;;8.18;1.73;;;;;;;19.99;59.40;98630.63;5064837;28;20027;-69
2022/07/28 06:17:39;;;;;;;4.53;1.20;;;;;;;20.09;59.15;98605.94;5088160;28;20033;-69
2022/07/28 06:20:06;;;;;;;3.78;1.33;;;;;;;20.45;58.30;98623.31;5076586;28;20028;-68
2022/07/28 06:22:45;;;;;;;8.85;1.83;;;;;;;20.70;57.43;98619.00;5081637;28;20084;-69
2022/07/28 06:25:19;;;;;;;6.68;1.45;;;;;;;20.95;56.28;98623.66;5075234;28;20025;-68
2022/07/28 06:27:46;;;;;;;8.20;1.40;;;;;;;21.31;55.57;98627.22;5055262;28;20025;-68
2022/07/28 06:30:12;;;;;;;6.40;1.30;;;;;;;21.54;54.92;98612.06;5064497;28;20113;-66
2022/07/28 06:32:37;;;;;;;4.32;1.67;;;;;;;21.73;53.95;98623.28;5073855;28;20067;-66
2022/07/28 06:35:04;;;;;;;5.90;1.48;;;;;;;22.29;53.05;98622.22;5074331;28;20020;-66
2022/07/28 06:37:29;;;;;;;8.63;1.30;;;;;;;22.94;51.26;98614.56;5067833;28;20037;-66
2022/07/28 06:39:54;;;;;;;6.45;2.63;;;;;;;23.30;50.49;98613.47;5062243;28;20021;-66
2022/07/28 06:42:20;;;;;;;4.90;1.52;;;;;;;23.81;48.61;98618.44;5070671;28;20028;-67
2022/07/28 06:44:45;;;;;;;2.67;1.30;;;;;;;25.22;46.26;98621.38;5053720;28;20020;-67
2022/07/28 06:47:10;;;;;;;3.38;1.60;;;;;;;26.32;42.87;98619.78;5066962;28;20089;-70
2022/07/28 06:49:36;;;;;;;2.92;1.60;;;;;;;27.99;39.59;98615.84;5041741;28;20021;-70
2022/07/28 06:52:01;;;;;;;2.88;1.23;;;;;;;29.35;38.18;98616.53;5045921;28;20048;-70
2022/07/28 06:54:26;;;;;;;5.60;1.67;;;;;;;30.34;36.18;98601.53;5045039;28;20036;-70
2022/07/28 06:56:52;;;;;;;3.35;1.83;;;;;;;30.83;35.53;98600.97;5049126;28;20028;-72
2022/07/28 06:59:18;;;;;;;4.63;2.03;;;;;;;31.55;34.39;98587.59;5068172;28;20025;-69
2022/07/28 07:01:43;;;;;;;4.15;1.73;;;;;;;32.10;32.65;98583.41;5048050;28;20589;-69
2022/07/28 07:04:09;;;;;;;3.42;2.00;;;;;;;31.73;33.78;98605.78;5049069;28;20227;-70
2022/07/28 07:06:34;;;;;;;4.40;1.70;;;;;;;32.77;32.55;98606.25;5050143;28;20086;-70
2022/07/28 07:08:59;;;;;;;5.60;2.30;;;;;;;32.86;31.95;98611.72;5050016;28;20116;-71
2022/07/28 07:11:26;;;;;;;3.67;2.03;;;;;;;33.22;31.95;98604.31;5068172;28;20024;-70
2022/07/28 07:13:51;;;;;;;4.22;2.40;;;;;;;33.10;31.71;98589.22;5065957;28;20070;-70
2022/07/28 07:16:17;;;;;;;3.47;1.90;;;;;;;34.57;29.87;98586.41;5045489;28;20111;-68
2022/07/28 07:18:43;;;;;;;3.25;2.03;;;;;;;33.96;30.38;98574.59;5058915;28;20123;-71
2022/07/28 07:21:08;;;;;;;3.67;2.15;;;;;;;32.75;32.00;98583.41;5067109;28;20131;-68
2022/07/28 07:23:34;;;;;;;5.30;2.38;;;;;;;33.48;31.24;98586.97;5064969;28;20025;-68
2022/07/28 07:26:00;;;;;;;3.85;1.98;;;;;;;34.05;30.17;98569.59;5049447;28;20431;-71
2022/07/28 07:28:25;;;;;;;3.72;2.10;;;;;;;34.36;29.92;98570.72;5066021;28;20039;-68
2022/07/28 07:30:51;;;;;;;2.75;1.75;;;;;;;35.56;29.06;98561.44;5068290;28;20663;-70
2022/07/28 07:33:16;;;;;;;2.78;1.90;;;;;;;34.91;29.59;98574.28;5068936;28;21588;-71
2022/07/28 07:35:42;;;;;;;4.45;2.10;;;;;;;36.02;28.07;98577.47;5045551;28;20028;-71
2022/07/28 07:38:07;;;;;;;3.97;2.45;;;;;;;35.47;28.49;98578.56;5066753;28;20028;-71
2022/07/28 07:40:33;;;;;;;5.50;2.03;;;;;;;36.17;27.98;98570.91;5046864;28;20512;-71
2022/07/28 07:42:58;;;;;;;3.67;2.15;;;;;;;36.04;28.05;98561.03;5047202;28;20481;-72
2022/07/28 07:45:23;;;;;;;3.20;1.90;;;;;;;36.13;27.98;98558.75;5052294;28;20020;-74
2022/07/28 07:47:49;;;;;;;4.03;2.00;;;;;;;36.52;27.43;98570.56;5051633;28;20039;-73
2022/07/28 07:50:14;;;;;;;2.45;1.75;;;;;;;35.85;28.62;98576.81;5050230;28;20048;-74
2022/07/28 07:52:39;;;;;;;7.78;2.22;;;;;;;34.80;30.08;98578.09;5052306;28;20116;-74
2022/07/28 07:55:05;;;;;;;3.30;2.05;;;;;;;36.08;28.44;98559.91;5054084;28;20443;-72
2022/07/28 07:57:31;;;;;;;3.83;2.05;;;;;;;36.61;27.43;98562.69;5068104;28;20028;-69
2022/07/28 07:59:56;;;;;;;4.32;2.33;;;;;;;35.62;28.44;98584.47;5064935;28;20032;-71
2022/07/28 08:02:21;;;;;;;3.67;1.85;;;;;;;37.35;26.73;98582.84;5069589;28;20091;-72
2022/07/28 08:04:47;;;;;;;3.30;1.70;;;;;;;35.99;27.68;98579.84;5069337;28;20024;-70
2022/07/28 08:07:12;;;;;;;3.05;1.98;;;;;;;37.47;26.58;98580.56;5066855;28;20111;-69
2022/07/28 08:09:37;;;;;;;3.40;1.88;;;;;;;35.89;27.77;98557.97;5065858;28;20054;-67
2022/07/28 08:12:03;;;;;;;3.42;2.00;;;;;;;36.99;27.18;98571.16;5049782;28;20048;-70
2022/07/28 08:14:28;;;;;;;3.38;1.83;;;;;;;37.93;25.95;98563.22;5065905;28;20046;-71
2022/07/28 08:16:55;;;;;;;3.58;1.80;;;;;;;37.63;26.52;98569.03;5065802;28;20113;-68
2022/07/28 08:19:21;;;;;;;3.00;1.65;;;;;;;36.81;27.57;98560.50;5061864;28;20494;-69
2022/07/28 08:21:46;;;;;;;8.25;2.00;;;;;;;37.72;26.55;98569.50;5064507;28;20116;-68
2022/07/28 08:24:11;;;;;;;3.97;2.17;;;;;;;37.23;27.14;98561.38;5048155;28;20020;-71
2022/07/28 08:26:36;;;;;;;4.00;2.13;;;;;;;37.62;26.60;98558.94;5064556;28;20028;-71
2022/07/28 08:29:02;;;;;;;4.13;1.90;;;;;;;37.49;26.51;98549.13;5067520;28;20045;-67
2022/07/28 08:31:28;;;;;;;3.70;2.05;;;;;;;37.55;26.85;98553.25;5067397;28;20308;-67
2022/07/28 08:33:53;;;;;;;4.05;2.30;;;;;;;37.46;26.86;98561.19;5064403;28;20024;-69
2022/07/28 08:36:18;;;;;;;3.97;2.47;;;;;;;38.22;26.62;98551.31;5070334;28;20039;-73
2022/07/28 08:38:44;;;;;;;3.65;2.00;;;;;;;38.43;25.83;98559.13;5062245;28;20028;-72
2022/07/28 08:41:18;;;;;;;5.25;2.03;;;;;;;38.90;25.29;98552.47;5069870;28;20024;-73
2022/07/28 08:43:46;;;;;;;4.10;2.20;;;;;;;39.30;24.84;98555.38;5061468;28;20035;-70
2022/07/28 08:46:12;;;;;;;6.43;2.50;;;;;;;38.79;25.68;98560.09;5068463;28;20024;-73
2022/07/28 08:48:37;;;;;;;5.25;2.30;;;;;;;39.45;25.24;98559.88;5064008;28;20037;-72
2022/07/28 08:51:06;;;;;;;3.30;2.20;;;;;;;39.56;25.06;98560.69;5069853;28;20545;-68
2022/07/28 08:53:33;;;;;;;;;;;;;;;40.63;24.21;98545.53;5063699;28;20397;-69
2022/07/28 08:56:04;;;;;;;5.05;2.25;;;;;;;39.26;24.70;98546.91;5065589;28;19959;-73
2022/07/28 08:58:34;;;;;;;3.55;2.00;;;;;;;38.61;25.71;98557.19;5067286;28;20374;-72
2022/07/28 09:01:00;;;;;;;4.93;2.03;;;;;;;38.86;25.16;98551.63;5060202;28;20478;-71
2022/07/28 09:03:27;;;;;;;4.53;2.40;;;;;;;39.76;23.97;98552.59;5063214;28;20094;-73
2022/07/28 09:05:53;;;;;;;3.15;1.88;;;;;;;37.57;25.67;98548.00;5064343;28;20027;-72
2022/07/28 09:08:19;;;;;;;4.25;2.30;;;;;;;37.45;26.42;98537.00;5062866;28;20377;-68
2022/07/28 09:10:45;;;;;;;4.68;2.00;;;;;;;37.96;25.73;98527.72;5058124;28;20123;-67
2022/07/28 09:13:11;;;;;;;4.97;2.17;;;;;;;36.96;26.60;98516.34;5061781;28;20032;-70
2022/07/28 09:15:36;;;;;;;3.58;2.30;;;;;;;37.05;26.71;98516.09;5064855;28;21422;-70
2022/07/28 09:18:03;;;;;;;3.00;2.17;;;;;;;37.37;26.23;98529.69;5065664;28;20558;-74
2022/07/28 09:20:28;;;;;;;8.05;2.40;;;;;;;36.38;27.37;98530.94;5062833;28;20025;-72
2022/07/28 09:23:02;;;;;;;5.25;2.28;;;;;;;37.75;25.98;98511.44;5068878;28;20070;-67
2022/07/28 09:25:29;;;;;;;2.83;2.08;;;;;;;38.88;24.48;98526.59;5073883;28;20032;-67
2022/07/28 09:27:54;;;;;;;2.47;1.65;;;;;;;38.14;24.78;98522.22;5073336;28;20031;-67
2022/07/28 09:30:31;;;;;;;3.97;2.22;;;;;;;38.01;25.41;98521.72;5051180;28;20020;-64
2022/07/28 09:33:31;;;;;;;5.97;2.45;;;;;;;37.97;25.19;98523.75;5069794;28;20033;-65
2022/07/28 09:35:57;;;;;;;5.78;2.10;;;;;;;38.20;25.33;98517.81;5008694;28;20044;-65
2022/07/28 09:38:26;;;;;;;4.70;2.28;;;;;;;38.79;23.98;98514.84;5067445;28;20028;-66
2022/07/28 09:40:57;;;;;;;3.25;2.17;;;;;;;37.33;25.00;98512.69;5068151;28;20138;-65
2022/07/28 09:43:42;;;;;;;4.82;2.22;;;;;;;36.43;26.27;98500.41;5070101;28;20032;-65
2022/07/28 09:46:08;;;;;;;5.38;2.35;;;;;;;36.39;26.89;98504.38;5050305;28;20032;-65
2022/07/28 09:48:48;;;;;;;4.97;2.08;;;;;;;35.85;27.21;98509.25;5069359;28;21821;-66
2022/07/28 09:51:15;;;;;;;3.40;2.40;;;;;;;36.20;26.81;98508.97;5063967;28;20028;-65
2022/07/28 09:53:41;;;;;;;6.55;2.20;;;;;;;37.16;26.29;98502.88;5063621;28;20093;-65
2022/07/28 09:56:08;;;;;;;4.47;2.20;;;;;;;38.29;25.25;98500.50;5063800;28;20067;-67
2022/07/28 09:58:33;;;;;;;4.63;2.10;;;;;;;37.30;26.25;98507.84;5068718;28;20103;-67
2022/07/28 10:01:08;;;;;;;3.75;1.75;;;;;;;35.83;27.57;98496.75;5067102;28;20177;-67
2022/07/28 10:03:35;;;;;;;6.60;2.80;;;;;;;32.17;31.54;98490.44;5067104;28;20375;-67
2022/07/28 10:06:04;;;;;;;3.67;2.47;;;;;;;31.05;33.87;98497.22;5066505;28;20028;-67
2022/07/28 10:08:48;;;;;;;6.78;2.60;;;;;;;33.58;31.02;98496.72;5065039;28;20031;-69
2022/07/28 10:11:19;;;;;;;5.88;2.53;;;;;;;36.90;27.57;98494.53;5066274;28;20025;-70
2022/07/28 10:14:01;;;;;;;5.57;2.13;;;;;;;36.32;26.96;98484.59;5062615;28;20025;-67
2022/07/28 10:16:33;;;;;;;7.28;2.00;;;;;;;35.34;28.41;98489.94;5042247;28;20021;-66
2022/07/28 10:19:01;;;;;;;3.95;2.28;;;;;;;35.38;28.11;98485.19;5061758;28;20060;-67
2022/07/28 10:21:30;;;;;;;4.20;2.30;;;;;;;35.59;27.84;98472.69;5067980;28;20103;-66
2022/07/28 10:24:00;;;;;;;2.80;1.90;;;;;;;36.55;27.07;98470.38;5065335;28;20515;-66
2022/07/28 10:26:37;;;;;;;3.63;2.33;;;;;;;36.53;26.66;98487.66;5063202;28;20060;-66
2022/07/28 10:29:06;;;;;;;3.35;2.25;;;;;;;36.74;26.72;98487.13;5061248;28;20071;-66
2022/07/28 10:31:37;;;;;;;2.97;2.15;;;;;;;36.93;26.15;98474.03;5067401;28;20110;-66
2022/07/28 10:34:04;;;;;;;3.58;1.75;;;;;;;37.54;25.53;98469.75;5056727;28;20024;-68
2022/07/28 10:36:31;;;;;;;2.92;2.15;;;;;;;37.91;25.53;98472.44;5067133;28;20033;-67
2022/07/28 10:39:19;;;;;;;2.90;1.90;;;;;;;37.26;25.44;98473.97;5067087;28;20492;-67
2022/07/28 10:41:44;;;;;;;5.30;2.05;;;;;;;35.72;27.15;98471.28;5065799;28;20274;-66
2022/07/28 10:44:16;;;;;;;3.08;1.75;;;;;;;36.43;26.77;98463.78;5063580;28;20383;-67
2022/07/28 10:46:42;;;;;;;5.85;1.80;;;;;;;35.82;26.65;98448.09;5066872;28;20043;-67
2022/07/28 10:49:09;;;;;;;2.13;1.80;;;;;;;35.65;27.00;98452.25;5063874;28;20029;-66
2022/07/28 10:51:36;;;;;;;4.30;1.77;;;;;;;36.62;26.17;98464.84;5064159;28;20046;-65
2022/07/28 10:54:12;;;;;;;2.28;1.88;;;;;;;36.93;25.95;98454.28;5048424;28;20033;-66
2022/07/28 10:56:49;;;;;;;3.22;1.88;;;;;;;36.88;25.86;98454.63;5066849;28;20141;-67
2022/07/28 10:59:40;;;;;;;2.72;1.90;;;;;;;37.13;25.85;98460.50;5068100;28;20036;-67
2022/07/28 11:02:05;;;;;;;2.80;1.80;;;;;;;37.95;25.09;98458.31;5065445;28;20040;-67
2022/07/28 11:04:39;;;;;;;4.00;1.60;;;;;;;38.43;24.90;98461.00;5061056;28;20025;-67
2022/07/28 11:07:09;;;;;;;2.42;1.80;;;;;;;37.74;25.08;98452.56;5067421;28;20483;-67
2022/07/28 11:09:35;;;;;;;4.60;1.70;;;;;;;36.74;26.21;98453.28;5064146;28;20029;-68
2022/07/28 11:12:01;;;;;;;4.20;1.90;;;;;;;35.95;26.63;98432.59;5067947;28;20037;-66
2022/07/28 11:14:35;;;;;;;3.78;1.85;;;;;;;36.36;25.82;98443.97;5060074;28;20461;-67
2022/07/28 11:17:00;;;;;;;7.18;2.13;;;;;;;36.02;26.76;98448.75;5065113;28;20020;-66
2022/07/28 11:19:27;;;;;;;4.80;1.90;;;;;;;36.69;25.49;98450.03;5047687;28;20062;-66
2022/07/28 11:22:15;;;;;;;3.22;2.05;;;;;;;35.71;27.03;98452.75;5065085;28;20099;-68
2022/07/28 11:24:56;;;;;;;3.35;2.10;;;;;;;36.26;26.43;98444.66;5063795;28;20032;-66
2022/07/28 11:27:45;;;;;;;4.00;2.08;;;;;;;36.72;26.37;98438.75;5057480;28;20433;-67
2022/07/28 11:30:35;;;;;;;4.28;1.80;;;;;;;35.87;26.69;98439.31;5057650;28;20032;-69
2022/07/28 11:33:05;;;;;;;3.63;2.17;;;;;;;33.75;28.69;98428.97;5046710;28;20024;-67
2022/07/28 11:35:52;;;;;;;2.58;2.03;;;;;;;34.25;28.26;98435.69;5064562;28;20021;-69
2022/07/28 11:38:17;;;;;;;3.50;1.90;;;;;;;35.33;27.04;98432.84;5064591;28;20508;-69
2022/07/28 11:40:45;;;;;;;4.93;1.88;;;;;;;36.61;26.18;98441.47;5067888;28;20032;-67
2022/07/28 11:43:22;;;;;;;6.15;1.98;;;;;;;37.85;24.78;98436.47;5063774;28;20043;-70